Time;durP1;ratioP1;P1;durP2;ratioP2;P2;SDS_P1;SDS_P2;PMS_P1;PMS_P2;Temp;Humidity;BMP_temperature;BMP_pressure;BME280_temperature;BME280_humidity;BME280_pressure;Samples;Min_cycle;Max_cycle;Signal;HPM_P1;HPM_P2
2023/09/27 00:01:45;;;;;;;25.48;15.45;;;;;;;;;;5056560;28;20104;-68
2023/09/27 00:04:10;;;;;;;23.80;13.80;;;;;;;;;;5056771;28;20437;-68
2023/09/27 00:06:36;;;;;;;30.75;17.40;;;;;;;;;;5037966;28;20021;-68
2023/09/27 00:09:02;;;;;;;24.38;15.45;;;;;;;;;;5056460;28;20103;-68
2023/09/27 00:11:27;;;;;;;21.80;13.95;;;;;;;;;;5038449;28;20021;-69
2023/09/27 00:13:53;;;;;;;20.33;13.80;;;;;;;;;;5056426;28;20497;-68
2023/09/27 00:16:18;;;;;;;28.80;15.93;;;;;;;;;;5056412;28;20035;-68
2023/09/27 00:18:45;;;;;;;24.55;15.63;;;;;;;;;;5055940;28;20100;-68
2023/09/27 00:21:10;;;;;;;23.00;13.38;;;;;;;;;;5053824;28;20459;-68
2023/09/27 00:23:36;;;;;;;23.20;15.05;;;;;;;;;;5038486;28;20094;-68
2023/09/27 00:26:01;;;;;;;21.80;13.52;;;;;;;;;;5034489;28;20017;-68
2023/09/27 00:28:26;;;;;;;20.85;13.48;;;;;;;;;;5021647;28;20020;-68
2023/09/27 00:30:51;;;;;;;26.35;15.50;;;;;;;;;;5019731;28;20022;-68
2023/09/27 00:33:17;;;;;;;26.20;17.92;;;;;;;;;;5056256;28;20100;-68
2023/09/27 00:35:47;;;;;;;26.80;13.32;;;;;;;;;;5038100;28;20074;-68
2023/09/27 00:38:12;;;;;;;21.30;12.88;;;;;;;;;;5038525;28;20409;-68
2023/09/27 00:40:46;;;;;;;27.42;17.10;;;;;;;;;;5037545;28;20035;-68
2023/09/27 00:43:32;;;;;;;34.33;17.73;;;;;;;;;;5038086;28;20120;-68
2023/09/27 00:46:02;;;;;;;30.58;17.75;;;;;;;;;;5037927;28;20032;-68
2023/09/27 00:48:30;;;;;;;28.20;14.60;;;;;;;;;;5037289;28;20029;-67
2023/09/27 00:50:55;;;;;;;25.02;16.42;;;;;;;;;;5054827;28;20107;-68
2023/09/27 00:53:22;;;;;;;25.23;14.43;;;;;;;;;;5055878;28;20452;-68
2023/09/27 00:55:48;;;;;;;26.52;15.63;;;;;;;;;;5037611;28;20087;-68
2023/09/27 00:58:18;;;;;;;23.58;14.30;;;;;;;;;;5037674;28;20020;-68
2023/09/27 01:00:43;;;;;;;20.10;13.25;;;;;;;;;;5037720;28;20025;-68
2023/09/27 01:03:09;;;;;;;21.48;13.57;;;;;;;;;;5037794;28;20036;-68
2023/09/27 01:05:34;;;;;;;25.10;14.15;;;;;;;;;;5038020;28;20025;-68
2023/09/27 01:08:00;;;;;;;27.63;14.85;;;;;;;;;;5038094;28;20056;-68
2023/09/27 01:10:25;;;;;;;24.40;13.55;;;;;;;;;;5056589;28;20032;-68
2023/09/27 01:12:51;;;;;;;21.13;12.77;;;;;;;;;;5055118;28;20041;-68
2023/09/27 01:15:16;;;;;;;19.42;12.73;;;;;;;;;;5055576;28;20493;-68
2023/09/27 01:17:55;;;;;;;19.67;12.57;;;;;;;;;;5037949;28;20017;-68
2023/09/27 01:20:20;;;;;;;21.33;12.07;;;;;;;;;;5055509;28;20036;-68
2023/09/27 01:22:59;;;;;;;20.25;13.27;;;;;;;;;;5054910;28;20037;-68
2023/09/27 01:25:29;;;;;;;21.70;12.20;;;;;;;;;;5055415;28;20017;-68
2023/09/27 01:27:59;;;;;;;22.45;13.13;;;;;;;;;;5055526;28;20107;-68
2023/09/27 01:30:25;;;;;;;19.30;12.23;;;;;;;;;;5037717;28;20024;-68
2023/09/27 01:32:51;;;;;;;23.00;12.57;;;;;;;;;;5054725;28;20427;-68
2023/09/27 01:35:16;;;;;;;23.40;13.18;;;;;;;;;;5055053;28;20079;-68
2023/09/27 01:37:41;;;;;;;22.45;14.18;;;;;;;;;;5055122;28;20060;-68
2023/09/27 01:40:10;;;;;;;26.35;16.23;;;;;;;;;;5054770;28;20051;-68
2023/09/27 01:42:42;;;;;;;32.88;18.73;;;;;;;;;;5055049;28;20029;-68
2023/09/27 01:45:07;;;;;;;35.95;18.95;;;;;;;;;;5055348;28;20032;-68
2023/09/27 01:47:33;;;;;;;30.55;17.13;;;;;;;;;;5055408;28;20017;-68
2023/09/27 01:49:58;;;;;;;25.13;14.40;;;;;;;;;;5055865;28;20048;-68
2023/09/27 01:52:24;;;;;;;24.52;14.27;;;;;;;;;;5020894;28;20445;-68
2023/09/27 01:54:49;;;;;;;22.98;13.95;;;;;;;;;;5054431;28;20483;-68
2023/09/27 01:57:14;;;;;;;26.77;14.23;;;;;;;;;;5054677;28;20043;-68
2023/09/27 01:59:39;;;;;;;25.42;14.77;;;;;;;;;;5055005;28;20078;-68
2023/09/27 02:02:05;;;;;;;30.17;16.15;;;;;;;;;;5054016;28;20419;-68
2023/09/27 02:04:30;;;;;;;37.25;20.27;;;;;;;;;;5054153;28;20033;-68
2023/09/27 02:06:55;;;;;;;37.80;21.00;;;;;;;;;;5054633;28;20021;-68
2023/09/27 02:09:21;;;;;;;38.45;21.73;;;;;;;;;;5054471;28;20036;-68
2023/09/27 02:11:46;;;;;;;40.20;22.05;;;;;;;;;;5036838;28;20025;-68
2023/09/27 02:14:11;;;;;;;37.45;20.40;;;;;;;;;;5055802;28;20029;-68
2023/09/27 02:16:36;;;;;;;39.10;20.35;;;;;;;;;;5055699;28;20052;-68
2023/09/27 02:19:04;;;;;;;38.78;20.67;;;;;;;;;;5036896;28;20051;-68
2023/09/27 02:21:30;;;;;;;34.75;20.75;;;;;;;;;;5053754;28;20025;-68
2023/09/27 02:23:55;;;;;;;36.40;18.05;;;;;;;;;;5036317;28;20079;-68
2023/09/27 02:26:20;;;;;;;36.08;18.95;;;;;;;;;;5036498;28;20016;-68
2023/09/27 02:28:45;;;;;;;33.95;18.88;;;;;;;;;;5036312;28;20021;-68
2023/09/27 02:31:12;;;;;;;34.80;19.20;;;;;;;;;;5053296;28;20471;-67
2023/09/27 02:33:38;;;;;;;34.83;19.83;;;;;;;;;;5050574;28;20111;-70
2023/09/27 02:36:03;;;;;;;36.60;21.55;;;;;;;;;;5027099;28;20180;-68
2023/09/27 02:38:29;;;;;;;30.95;17.50;;;;;;;;;;5040099;28;20090;-68
2023/09/27 02:40:54;;;;;;;33.97;18.63;;;;;;;;;;5053719;28;20475;-70
2023/09/27 02:43:19;;;;;;;32.22;16.60;;;;;;;;;;5053720;28;20071;-68
2023/09/27 02:45:45;;;;;;;28.58;17.30;;;;;;;;;;5035291;28;20020;-68
2023/09/27 02:48:10;;;;;;;27.15;16.05;;;;;;;;;;5054604;28;20024;-69
2023/09/27 02:50:36;;;;;;;31.17;17.92;;;;;;;;;;5035936;28;20033;-70
2023/09/27 02:53:01;;;;;;;32.28;18.13;;;;;;;;;;5032888;28;20028;-70
2023/09/27 02:55:26;;;;;;;31.55;17.15;;;;;;;;;;5053995;28;20486;-69
2023/09/27 02:57:52;;;;;;;24.45;13.63;;;;;;;;;;5036049;28;20080;-67
2023/09/27 03:00:20;;;;;;;25.55;15.05;;;;;;;;;;5053575;28;20021;-68
2023/09/27 03:02:45;;;;;;;28.65;16.30;;;;;;;;;;5053387;28;20025;-68
2023/09/27 03:05:11;;;;;;;26.83;15.50;;;;;;;;;;5053121;28;20070;-69
2023/09/27 03:07:38;;;;;;;29.67;16.75;;;;;;;;;;5035747;28;20475;-68
2023/09/27 03:10:12;;;;;;;23.05;13.90;;;;;;;;;;5031992;28;20030;-68
2023/09/27 03:12:39;;;;;;;29.25;15.45;;;;;;;;;;5032012;28;20045;-68
2023/09/27 03:15:10;;;;;;;22.85;13.45;;;;;;;;;;5033488;28;20091;-68
2023/09/27 03:17:35;;;;;;;27.95;15.60;;;;;;;;;;5016058;28;20028;-68
2023/09/27 03:20:00;;;;;;;30.77;15.80;;;;;;;;;;5033410;28;20025;-68
2023/09/27 03:22:26;;;;;;;27.42;14.85;;;;;;;;;;5033442;28;20117;-68
2023/09/27 03:24:51;;;;;;;30.42;17.83;;;;;;;;;;5033448;28;20045;-69
2023/09/27 03:27:16;;;;;;;31.92;17.80;;;;;;;;;;5015752;28;20471;-69
2023/09/27 03:29:42;;;;;;;33.72;18.80;;;;;;;;;;5033224;28;20118;-67
2023/09/27 03:32:09;;;;;;;30.50;17.92;;;;;;;;;;5040527;28;20021;-70
2023/09/27 03:34:35;;;;;;;28.67;16.42;;;;;;;;;;5053200;28;20033;-70
2023/09/27 03:37:01;;;;;;;37.70;20.02;;;;;;;;;;5053176;28;20033;-70
2023/09/27 03:39:28;;;;;;;33.63;18.85;;;;;;;;;;5053135;28;20024;-70
2023/09/27 03:41:53;;;;;;;35.28;19.20;;;;;;;;;;5035140;28;20029;-70
2023/09/27 03:44:19;;;;;;;37.55;19.77;;;;;;;;;;5053180;28;20414;-70
2023/09/27 03:46:44;;;;;;;38.70;20.60;;;;;;;;;;5053396;28;20021;-70
2023/09/27 03:49:12;;;;;;;38.28;21.23;;;;;;;;;;5034379;28;20390;-70
2023/09/27 03:51:38;;;;;;;31.75;18.02;;;;;;;;;;5053189;28;20035;-70
2023/09/27 03:54:03;;;;;;;41.17;20.20;;;;;;;;;;5052925;28;20107;-70
2023/09/27 03:56:28;;;;;;;35.95;19.38;;;;;;;;;;5053271;28;20032;-70
2023/09/27 03:58:54;;;;;;;41.83;21.60;;;;;;;;;;5052608;28;20051;-70
2023/09/27 04:01:19;;;;;;;37.75;19.98;;;;;;;;;;5052877;28;20032;-70
2023/09/27 04:03:46;;;;;;;39.70;21.33;;;;;;;;;;5052765;28;20021;-70
2023/09/27 04:06:11;;;;;;;38.22;19.85;;;;;;;;;;5053019;28;20100;-70
2023/09/27 04:08:36;;;;;;;36.42;20.23;;;;;;;;;;5052939;28;20055;-70
2023/09/27 04:11:03;;;;;;;33.05;16.88;;;;;;;;;;5052791;28;20032;-70
2023/09/27 04:13:28;;;;;;;30.65;15.95;;;;;;;;;;5052290;28;20510;-70
2023/09/27 04:15:54;;;;;;;25.15;14.65;;;;;;;;;;5052733;28;20065;-69
2023/09/27 04:18:19;;;;;;;28.15;15.10;;;;;;;;;;5052685;28;20070;-70
2023/09/27 04:20:44;;;;;;;27.95;16.00;;;;;;;;;;5052807;28;20039;-70
2023/09/27 04:23:10;;;;;;;36.20;18.23;;;;;;;;;;5034353;28;20033;-70
2023/09/27 04:25:35;;;;;;;25.05;15.05;;;;;;;;;;5054771;28;20032;-70
2023/09/27 04:28:01;;;;;;;28.92;16.90;;;;;;;;;;5057359;28;20020;-70
2023/09/27 04:30:26;;;;;;;28.23;16.52;;;;;;;;;;5038836;28;20082;-70
2023/09/27 04:32:52;;;;;;;22.77;12.38;;;;;;;;;;5056517;28;20028;-70
2023/09/27 04:35:18;;;;;;;18.10;10.82;;;;;;;;;;5055701;28;20032;-70
2023/09/27 04:37:45;;;;;;;23.75;12.55;;;;;;;;;;5056279;28;20108;-70
2023/09/27 04:40:11;;;;;;;20.08;11.85;;;;;;;;;;5038667;28;20032;-70
2023/09/27 04:42:37;;;;;;;23.38;13.73;;;;;;;;;;5056937;28;20021;-70
2023/09/27 04:45:03;;;;;;;27.08;13.38;;;;;;;;;;5038603;28;20024;-70
2023/09/27 04:47:28;;;;;;;25.10;14.43;;;;;;;;;;5056512;28;20025;-70
2023/09/27 04:49:54;;;;;;;36.67;19.67;;;;;;;;;;5055675;28;20029;-69
2023/09/27 04:52:22;;;;;;;35.50;19.60;;;;;;;;;;5038260;28;20033;-70
2023/09/27 04:54:48;;;;;;;34.58;18.75;;;;;;;;;;5053762;28;20112;-70
2023/09/27 04:57:14;;;;;;;27.23;15.25;;;;;;;;;;5052207;28;20028;-70
2023/09/27 04:59:39;;;;;;;35.58;18.40;;;;;;;;;;5055630;28;20013;-70
2023/09/27 05:02:05;;;;;;;28.38;13.38;;;;;;;;;;5055570;28;20400;-70
2023/09/27 05:04:30;;;;;;;36.28;17.98;;;;;;;;;;5055826;28;20017;-70
2023/09/27 05:06:55;;;;;;;30.33;17.30;;;;;;;;;;5056728;28;20029;-70
2023/09/27 05:09:20;;;;;;;38.17;18.85;;;;;;;;;;5055476;28;20029;-69
2023/09/27 05:11:46;;;;;;;34.63;18.50;;;;;;;;;;5056151;28;20021;-70
2023/09/27 05:14:12;;;;;;;30.83;16.02;;;;;;;;;;5055304;28;20032;-70
2023/09/27 05:16:38;;;;;;;35.17;19.42;;;;;;;;;;5037261;28;20075;-70
2023/09/27 05:19:03;;;;;;;29.90;16.42;;;;;;;;;;5054535;28;20021;-70
2023/09/27 05:21:28;;;;;;;35.63;19.23;;;;;;;;;;5037360;28;20064;-70
2023/09/27 05:23:54;;;;;;;35.67;16.58;;;;;;;;;;5055028;28;20092;-70
2023/09/27 05:26:19;;;;;;;36.47;19.67;;;;;;;;;;5055459;28;20036;-70
2023/09/27 05:28:44;;;;;;;42.25;20.50;;;;;;;;;;5054698;28;20028;-70
2023/09/27 05:31:10;;;;;;;31.63;16.48;;;;;;;;;;5054654;28;20082;-70
2023/09/27 05:33:35;;;;;;;33.03;18.95;;;;;;;;;;5054726;28;20112;-70
2023/09/27 05:36:02;;;;;;;28.75;16.90;;;;;;;;;;5054302;28;20021;-69
2023/09/27 05:38:27;;;;;;;32.20;16.85;;;;;;;;;;5036695;28;20025;-70
2023/09/27 05:40:52;;;;;;;45.03;21.65;;;;;;;;;;5054795;28;20033;-69
2023/09/27 05:43:17;;;;;;;39.78;18.55;;;;;;;;;;5054580;28;20029;-70
2023/09/27 05:45:43;;;;;;;36.90;21.13;;;;;;;;;;5036316;28;20025;-70
2023/09/27 05:48:08;;;;;;;40.47;20.70;;;;;;;;;;5054388;28;20029;-70
2023/09/27 05:50:34;;;;;;;34.28;20.58;;;;;;;;;;5054269;28;20036;-68
2023/09/27 05:53:00;;;;;;;39.70;20.85;;;;;;;;;;5054495;28;20032;-67
2023/09/27 05:55:26;;;;;;;36.53;17.73;;;;;;;;;;5036561;28;20036;-67
2023/09/27 05:57:53;;;;;;;30.58;16.23;;;;;;;;;;5053659;28;20179;-67
2023/09/27 06:00:26;;;;;;;33.83;16.90;;;;;;;;;;5054342;28;20445;-67
2023/09/27 06:02:51;;;;;;;31.10;15.27;;;;;;;;;;5054398;28;20441;-67
2023/09/27 06:05:16;;;;;;;36.88;18.35;;;;;;;;;;5054236;28;20113;-67
2023/09/27 06:07:42;;;;;;;40.92;20.75;;;;;;;;;;5054723;28;20024;-67
2023/09/27 06:10:08;;;;;;;35.53;18.50;;;;;;;;;;5053108;28;20437;-67
2023/09/27 06:12:34;;;;;;;44.95;21.60;;;;;;;;;;5054336;28;20099;-67
2023/09/27 06:14:59;;;;;;;39.63;19.63;;;;;;;;;;5035899;28;20083;-67
2023/09/27 06:17:24;;;;;;;48.22;25.25;;;;;;;;;;5053722;28;20024;-67
2023/09/27 06:19:50;;;;;;;49.92;23.20;;;;;;;;;;5053397;28;20017;-68
2023/09/27 06:22:16;;;;;;;38.83;19.70;;;;;;;;;;5036250;28;20379;-68
2023/09/27 06:24:42;;;;;;;33.95;18.98;;;;;;;;;;5036472;28;20025;-68
2023/09/27 06:27:07;;;;;;;28.00;16.65;;;;;;;;;;5053351;28;20032;-67
2023/09/27 06:29:33;;;;;;;28.27;14.88;;;;;;;;;;5054073;28;20025;-68
2023/09/27 06:31:58;;;;;;;26.95;16.35;;;;;;;;;;5053504;28;20179;-67
2023/09/27 06:34:23;;;;;;;47.22;22.73;;;;;;;;;;5053855;28;20020;-67
2023/09/27 06:36:49;;;;;;;44.55;23.67;;;;;;;;;;5052950;28;20525;-67
2023/09/27 06:39:19;;;;;;;45.35;21.70;;;;;;;;;;5035477;28;20116;-67
2023/09/27 06:41:45;;;;;;;54.03;28.02;;;;;;;;;;5033016;28;20502;-67
2023/09/27 06:44:12;;;;;;;51.75;24.38;;;;;;;;;;5053334;28;20024;-67
2023/09/27 06:46:37;;;;;;;43.33;21.98;;;;;;;;;;5035141;28;20103;-67
2023/09/27 06:49:04;;;;;;;49.50;24.95;;;;;;;;;;5034695;28;20111;-67
2023/09/27 06:51:29;;;;;;;44.38;24.23;;;;;;;;;;5052983;28;20025;-67
2023/09/27 06:53:55;;;;;;;44.83;24.13;;;;;;;;;;5034915;28;20483;-67
2023/09/27 06:56:20;;;;;;;51.85;25.05;;;;;;;;;;5047284;28;20033;-67
2023/09/27 06:58:46;;;;;;;45.58;24.17;;;;;;;;;;5053293;28;20028;-67
2023/09/27 07:01:14;;;;;;;42.78;21.45;;;;;;;;;;5053078;28;20395;-67
2023/09/27 07:03:40;;;;;;;39.60;21.77;;;;;;;;;;5053134;28;20079;-67
2023/09/27 07:06:05;;;;;;;41.97;21.02;;;;;;;;;;5041912;28;20052;-67
2023/09/27 07:08:31;;;;;;;43.53;24.17;;;;;;;;;;5032570;28;20029;-67
2023/09/27 07:11:07;;;;;;;44.38;21.05;;;;;;;;;;5043926;28;20372;-67
2023/09/27 07:13:32;;;;;;;37.88;20.65;;;;;;;;;;5035438;28;20487;-67
2023/09/27 07:15:59;;;;;;;47.53;23.27;;;;;;;;;;5035055;28;20096;-67
2023/09/27 07:18:25;;;;;;;40.10;22.35;;;;;;;;;;5052718;28;20025;-67
2023/09/27 07:20:51;;;;;;;41.33;23.88;;;;;;;;;;5035466;28;20029;-67
2023/09/27 07:23:17;;;;;;;44.03;22.63;;;;;;;;;;5053211;28;20078;-67
2023/09/27 07:25:43;;;;;;;43.42;23.70;;;;;;;;;;5052985;28;20017;-67
2023/09/27 07:28:08;;;;;;;36.45;21.80;;;;;;;;;;5035507;28;20032;-67
2023/09/27 07:30:33;;;;;;;39.58;20.90;;;;;;;;;;5052817;28;20025;-67
2023/09/27 07:32:59;;;;;;;33.83;20.60;;;;;;;;;;5052106;28;20025;-67
2023/09/27 07:35:30;;;;;;;35.80;20.33;;;;;;;;;;5053704;28;20056;-67
2023/09/27 07:37:55;;;;;;;35.50;21.95;;;;;;;;;;5036627;28;20157;-67
2023/09/27 07:40:23;;;;;;;38.35;21.13;;;;;;;;;;5052910;28;20021;-67
2023/09/27 07:42:48;;;;;;;37.13;20.65;;;;;;;;;;5052556;28;20394;-67
2023/09/27 07:45:21;;;;;;;39.72;21.10;;;;;;;;;;5052488;28;20021;-67
2023/09/27 07:47:54;;;;;;;34.50;20.98;;;;;;;;;;5035553;28;20084;-67
2023/09/27 07:50:21;;;;;;;35.03;18.48;;;;;;;;;;5051836;28;20040;-68
2023/09/27 07:52:47;;;;;;;36.35;20.70;;;;;;;;;;5034796;28;20059;-68
2023/09/27 07:55:14;;;;;;;30.25;18.90;;;;;;;;;;5052865;28;20028;-68
2023/09/27 07:57:43;;;;;;;38.05;20.92;;;;;;;;;;5041014;28;20037;-69
2023/09/27 08:00:09;;;;;;;41.88;20.80;;;;;;;;;;5017181;28;20108;-68
2023/09/27 08:02:36;;;;;;;32.83;20.25;;;;;;;;;;5018910;28;20117;-67
2023/09/27 08:05:09;;;;;;;34.88;19.48;;;;;;;;;;5018389;28;20028;-67
2023/09/27 08:07:35;;;;;;;34.53;19.13;;;;;;;;;;5036726;28;20021;-67
2023/09/27 08:10:00;;;;;;;36.72;19.48;;;;;;;;;;5036357;28;20031;-66
2023/09/27 08:12:28;;;;;;;36.63;20.13;;;;;;;;;;5039554;28;20096;-67
2023/09/27 08:14:53;;;;;;;33.63;19.40;;;;;;;;;;5056220;28;20082;-67
2023/09/27 08:17:18;;;;;;;31.80;19.73;;;;;;;;;;5055832;28;20033;-67
2023/09/27 08:19:43;;;;;;;31.88;18.92;;;;;;;;;;5056191;28;20482;-67
2023/09/27 08:22:09;;;;;;;29.95;18.25;;;;;;;;;;5056071;28;20071;-67
2023/09/27 08:24:35;;;;;;;31.08;17.88;;;;;;;;;;5055709;28;20021;-67
2023/09/27 08:27:01;;;;;;;31.88;19.33;;;;;;;;;;5038289;28;20021;-67
2023/09/27 08:29:27;;;;;;;32.42;18.35;;;;;;;;;;5055596;28;20534;-66
2023/09/27 08:31:52;;;;;;;27.83;17.80;;;;;;;;;;5055783;28;20060;-66
2023/09/27 08:34:18;;;;;;;37.67;19.80;;;;;;;;;;5056058;28;20025;-66
2023/09/27 08:36:43;;;;;;;35.42;19.77;;;;;;;;;;5054900;28;20025;-66
2023/09/27 08:39:09;;;;;;;32.67;17.95;;;;;;;;;;5037861;28;20399;-66
2023/09/27 08:41:35;;;;;;;30.67;17.25;;;;;;;;;;5055777;28;20028;-67
2023/09/27 08:44:01;;;;;;;34.22;18.85;;;;;;;;;;5037687;28;20021;-67
2023/09/27 08:46:31;;;;;;;31.45;18.55;;;;;;;;;;5054757;28;20483;-67
2023/09/27 08:48:57;;;;;;;32.63;17.40;;;;;;;;;;5037763;28;20087;-67
2023/09/27 08:51:23;;;;;;;34.53;17.88;;;;;;;;;;5052509;28;20029;-67
2023/09/27 08:53:49;;;;;;;31.30;17.52;;;;;;;;;;5037218;28;20094;-67
2023/09/27 08:56:16;;;;;;;28.60;18.92;;;;;;;;;;5051759;28;20025;-67
2023/09/27 08:58:43;;;;;;;35.63;19.58;;;;;;;;;;5027529;28;20021;-67
2023/09/27 09:01:09;;;;;;;29.52;18.45;;;;;;;;;;5017400;28;20103;-67
2023/09/27 09:03:36;;;;;;;31.40;19.35;;;;;;;;;;5027020;28;20025;-67
2023/09/27 09:06:04;;;;;;;28.98;17.17;;;;;;;;;;5036793;28;20386;-67
2023/09/27 09:08:30;;;;;;;34.60;19.60;;;;;;;;;;5053363;28;20028;-67
2023/09/27 09:10:55;;;;;;;30.95;18.02;;;;;;;;;;5031118;28;20087;-67
2023/09/27 09:13:22;;;;;;;31.23;19.27;;;;;;;;;;5050505;28;20032;-67
2023/09/27 09:15:48;;;;;;;31.30;18.13;;;;;;;;;;5052578;28;20108;-67
2023/09/27 09:18:29;;;;;;;36.15;19.58;;;;;;;;;;5036314;28;20028;-67
2023/09/27 09:20:59;;;;;;;36.08;19.42;;;;;;;;;;5036781;28;20025;-67
2023/09/27 09:23:30;;;;;;;34.80;16.70;;;;;;;;;;5054263;28;20051;-67
2023/09/27 09:25:57;;;;;;;31.20;18.38;;;;;;;;;;5036751;28;20013;-67
2023/09/27 09:28:22;;;;;;;26.70;16.55;;;;;;;;;;5053801;28;20104;-67
2023/09/27 09:30:47;;;;;;;32.67;19.48;;;;;;;;;;5054365;28;20049;-67
2023/09/27 09:33:16;;;;;;;31.88;18.83;;;;;;;;;;5054442;28;20590;-67
2023/09/27 09:35:41;;;;;;;26.88;15.90;;;;;;;;;;5053967;28;20029;-67
2023/09/27 09:38:06;;;;;;;35.25;18.83;;;;;;;;;;5054232;28;20482;-67
2023/09/27 09:40:34;;;;;;;35.50;16.67;;;;;;;;;;5035906;28;20017;-67
2023/09/27 09:43:00;;;;;;;26.67;15.82;;;;;;;;;;5054248;28;20104;-67
2023/09/27 09:45:26;;;;;;;30.70;18.27;;;;;;;;;;5036530;28;20090;-67
2023/09/27 09:47:52;;;;;;;32.08;18.35;;;;;;;;;;5036431;28;20016;-67
2023/09/27 09:50:17;;;;;;;29.27;18.35;;;;;;;;;;5053604;28;20035;-67
2023/09/27 09:53:00;;;;;;;29.70;17.38;;;;;;;;;;5053842;28;20042;-68
2023/09/27 09:55:34;;;;;;;30.98;17.50;;;;;;;;;;5035579;28;20028;-67
2023/09/27 09:58:22;;;;;;;29.63;16.70;;;;;;;;;;5053913;28;20575;-67
2023/09/27 10:00:49;;;;;;;25.23;16.27;;;;;;;;;;5054113;28;20025;-67
2023/09/27 10:03:20;;;;;;;23.90;15.20;;;;;;;;;;5035968;28;20025;-67
2023/09/27 10:05:45;;;;;;;26.33;15.82;;;;;;;;;;5035699;28;20021;-67
2023/09/27 10:08:12;;;;;;;29.75;17.13;;;;;;;;;;5035634;28;20025;-67
2023/09/27 10:10:37;;;;;;;26.20;17.13;;;;;;;;;;5036195;28;20033;-67
2023/09/27 10:13:04;;;;;;;28.98;17.40;;;;;;;;;;5035579;28;20070;-67
2023/09/27 10:15:33;;;;;;;31.05;18.15;;;;;;;;;;5035729;28;20025;-67
2023/09/27 10:18:23;;;;;;;23.30;14.52;;;;;;;;;;5033535;28;20033;-67
2023/09/27 10:21:16;;;;;;;26.33;16.45;;;;;;;;;;5051082;28;20049;-67
2023/09/27 10:23:45;;;;;;;26.40;16.85;;;;;;;;;;5032329;28;20033;-68
2023/09/27 10:26:18;;;;;;;27.48;16.90;;;;;;;;;;5035710;28;20551;-67
2023/09/27 10:29:01;;;;;;;25.45;15.48;;;;;;;;;;5052631;28;20033;-67
2023/09/27 10:31:28;;;;;;;26.58;15.80;;;;;;;;;;5053284;28;20494;-67
2023/09/27 10:33:54;;;;;;;27.60;17.17;;;;;;;;;;5035435;28;20029;-67
2023/09/27 10:36:25;;;;;;;26.70;16.77;;;;;;;;;;5052947;28;20025;-67
2023/09/27 10:38:50;;;;;;;26.92;15.13;;;;;;;;;;5034403;28;20380;-67
2023/09/27 10:41:34;;;;;;;24.53;13.63;;;;;;;;;;5053629;28;20032;-67
2023/09/27 10:44:02;;;;;;;25.98;15.60;;;;;;;;;;5050338;28;20025;-67
2023/09/27 10:46:42;;;;;;;25.58;16.92;;;;;;;;;;5053269;28;20124;-67
2023/09/27 10:49:08;;;;;;;26.75;16.45;;;;;;;;;;5034108;28;20031;-67
2023/09/27 10:51:33;;;;;;;34.50;16.27;;;;;;;;;;5053192;28;20028;-67
2023/09/27 10:53:59;;;;;;;26.35;15.55;;;;;;;;;;5034906;28;20078;-67
2023/09/27 10:56:24;;;;;;;24.02;14.35;;;;;;;;;;5052054;28;20020;-67
2023/09/27 10:58:50;;;;;;;23.60;16.02;;;;;;;;;;5052904;28;20024;-67
2023/09/27 11:01:22;;;;;;;21.20;12.80;;;;;;;;;;5053321;28;20021;-67
2023/09/27 11:03:47;;;;;;;25.35;15.27;;;;;;;;;;5036911;28;20025;-67
2023/09/27 11:06:14;;;;;;;28.70;17.75;;;;;;;;;;5052869;28;20020;-67
2023/09/27 11:08:40;;;;;;;26.63;15.52;;;;;;;;;;5034754;28;20515;-67
2023/09/27 11:11:09;;;;;;;24.73;16.15;;;;;;;;;;5052858;28;20033;-67
2023/09/27 11:13:35;;;;;;;21.98;14.40;;;;;;;;;;5034568;28;20047;-67
2023/09/27 11:16:08;;;;;;;27.10;17.23;;;;;;;;;;5052506;28;20040;-67
2023/09/27 11:18:34;;;;;;;25.58;14.77;;;;;;;;;;5034271;28;20025;-67
2023/09/27 11:21:09;;;;;;;29.48;17.20;;;;;;;;;;5034609;28;20036;-67
2023/09/27 11:23:51;;;;;;;26.05;15.30;;;;;;;;;;5034662;28;20047;-67
2023/09/27 11:26:19;;;;;;;25.50;15.65;;;;;;;;;;5034589;28;20028;-68
2023/09/27 11:28:44;;;;;;;29.73;16.30;;;;;;;;;;5052589;28;20490;-67
2023/09/27 11:31:10;;;;;;;25.17;16.38;;;;;;;;;;5052181;28;20103;-68
2023/09/27 11:33:35;;;;;;;27.48;15.85;;;;;;;;;;5052057;28;20024;-67
2023/09/27 11:36:05;;;;;;;25.63;15.25;;;;;;;;;;5056461;28;20028;-68
2023/09/27 11:38:30;;;;;;;28.35;16.35;;;;;;;;;;5056610;28;20048;-68
2023/09/27 11:40:55;;;;;;;25.73;15.13;;;;;;;;;;5038391;28;20113;-67
2023/09/27 11:43:21;;;;;;;28.15;14.73;;;;;;;;;;5056419;28;20385;-67
2023/09/27 11:45:49;;;;;;;29.45;15.65;;;;;;;;;;5021238;28;20396;-68
2023/09/27 11:48:15;;;;;;;24.35;14.55;;;;;;;;;;5021760;28;20127;-67
2023/09/27 11:50:41;;;;;;;24.00;16.95;;;;;;;;;;5038284;28;20104;-68
2023/09/27 11:53:07;;;;;;;25.20;15.45;;;;;;;;;;5038586;28;20114;-67
2023/09/27 11:55:32;;;;;;;23.67;15.85;;;;;;;;;;5037618;28;20091;-67
2023/09/27 11:57:59;;;;;;;22.92;15.32;;;;;;;;;;5056321;28;20025;-67
2023/09/27 12:00:24;;;;;;;21.20;14.30;;;;;;;;;;5038260;28;20119;-68
2023/09/27 12:02:50;;;;;;;25.85;16.10;;;;;;;;;;5056414;28;20021;-68
2023/09/27 12:05:16;;;;;;;29.13;17.45;;;;;;;;;;5055572;28;20092;-67
2023/09/27 12:07:43;;;;;;;25.95;15.93;;;;;;;;;;5038191;28;20049;-67
2023/09/27 12:10:09;;;;;;;27.13;16.58;;;;;;;;;;5055459;28;20470;-67
2023/09/27 12:12:34;;;;;;;26.48;15.38;;;;;;;;;;5038002;28;20028;-68
2023/09/27 12:15:00;;;;;;;26.83;15.75;;;;;;;;;;5055938;28;20366;-67
2023/09/27 12:17:26;;;;;;;24.02;14.32;;;;;;;;;;5055065;28;20437;-67
2023/09/27 12:19:51;;;;;;;27.45;15.93;;;;;;;;;;5055696;28;20036;-68
2023/09/27 12:22:17;;;;;;;25.67;14.70;;;;;;;;;;5037696;28;20025;-68
2023/09/27 12:24:42;;;;;;;26.20;16.95;;;;;;;;;;5055940;28;20156;-67
2023/09/27 12:27:07;;;;;;;22.30;15.23;;;;;;;;;;5037694;28;20017;-68
2023/09/27 12:29:33;;;;;;;24.33;16.10;;;;;;;;;;5044032;28;20025;-68
2023/09/27 12:31:59;;;;;;;28.00;17.00;;;;;;;;;;5038109;28;20490;-68
2023/09/27 12:34:24;;;;;;;25.27;15.52;;;;;;;;;;5053659;28;20025;-68
2023/09/27 12:36:50;;;;;;;24.40;15.55;;;;;;;;;;5055059;28;20032;-68
2023/09/27 12:39:15;;;;;;;25.30;15.18;;;;;;;;;;5055467;28;20786;-67
2023/09/27 12:41:40;;;;;;;26.88;15.70;;;;;;;;;;5052208;28;20036;-68
2023/09/27 12:44:06;;;;;;;22.10;14.38;;;;;;;;;;5037222;28;20021;-68
2023/09/27 12:46:34;;;;;;;23.15;13.02;;;;;;;;;;5052040;28;20463;-68
2023/09/27 12:48:59;;;;;;;17.10;10.75;;;;;;;;;;5053600;28;20154;-69
2023/09/27 12:51:24;;;;;;;16.08;9.52;;;;;;;;;;5037831;28;20457;-68
2023/09/27 12:53:50;;;;;;;25.02;12.65;;;;;;;;;;5037207;28;20033;-68
2023/09/27 12:56:15;;;;;;;20.98;13.82;;;;;;;;;;5054843;28;20460;-67
2023/09/27 12:58:42;;;;;;;25.08;13.27;;;;;;;;;;5055384;28;20033;-68
2023/09/27 13:01:07;;;;;;;20.25;13.02;;;;;;;;;;5048496;28;20039;-68
2023/09/27 13:03:33;;;;;;;16.08;9.65;;;;;;;;;;5054463;28;20482;-68
2023/09/27 13:05:58;;;;;;;21.10;13.25;;;;;;;;;;5037741;28;20026;-68
2023/09/27 13:08:23;;;;;;;25.65;12.95;;;;;;;;;;5041001;28;20021;-68
2023/09/27 13:10:49;;;;;;;22.38;12.95;;;;;;;;;;5054855;28;20046;-68
2023/09/27 13:13:14;;;;;;;21.58;13.98;;;;;;;;;;5054885;28;20029;-68
2023/09/27 13:15:39;;;;;;;16.75;10.63;;;;;;;;;;5026205;28;20033;-69
2023/09/27 13:18:06;;;;;;;19.77;12.57;;;;;;;;;;5054383;28;20025;-68
2023/09/27 13:20:32;;;;;;;15.27;9.93;;;;;;;;;;5050583;28;20055;-69
2023/09/27 13:22:57;;;;;;;18.08;12.27;;;;;;;;;;5054579;28;20025;-68
2023/09/27 13:25:22;;;;;;;21.98;14.07;;;;;;;;;;5054595;28;20390;-68
2023/09/27 13:27:47;;;;;;;19.70;12.93;;;;;;;;;;5054529;28;20017;-68
2023/09/27 13:30:13;;;;;;;25.10;16.25;;;;;;;;;;5054502;28;20029;-68
2023/09/27 13:32:39;;;;;;;18.83;12.95;;;;;;;;;;5036814;28;20025;-68
2023/09/27 13:35:05;;;;;;;26.02;17.27;;;;;;;;;;5054355;28;20059;-68
2023/09/27 13:37:31;;;;;;;21.85;14.35;;;;;;;;;;5053897;28;20032;-68
2023/09/27 13:39:56;;;;;;;24.42;15.25;;;;;;;;;;5054236;28;20036;-68
2023/09/27 13:42:22;;;;;;;26.75;14.05;;;;;;;;;;5054085;28;20090;-68
2023/09/27 13:44:48;;;;;;;21.40;12.40;;;;;;;;;;5053966;28;20052;-68
2023/09/27 13:47:13;;;;;;;20.70;12.23;;;;;;;;;;5053822;28;20059;-68
2023/09/27 13:49:38;;;;;;;16.23;10.30;;;;;;;;;;5035937;28;20033;-68
2023/09/27 13:52:04;;;;;;;20.85;13.48;;;;;;;;;;5054508;28;20119;-67
2023/09/27 13:54:30;;;;;;;22.25;15.18;;;;;;;;;;5068570;22;20041;-70
2023/09/27 13:56:55;;;;;;;21.98;13.88;;;;;;;;;;5036715;28;20028;-72
2023/09/27 13:59:21;;;;;;;23.95;14.27;;;;;;;;;;5054980;28;20063;-71
2023/09/27 14:01:46;;;;;;;21.00;14.55;;;;;;;;;;5054546;28;20051;-71
2023/09/27 14:04:11;;;;;;;26.23;14.93;;;;;;;;;;5054573;28;20386;-71
2023/09/27 14:06:37;;;;;;;24.27;14.75;;;;;;;;;;5030560;28;20032;-71
2023/09/27 14:09:02;;;;;;;27.50;15.60;;;;;;;;;;5034568;28;20399;-71
2023/09/27 14:11:27;;;;;;;23.90;14.57;;;;;;;;;;5035181;28;20029;-71
2023/09/27 14:13:53;;;;;;;28.58;17.23;;;;;;;;;;5034016;28;20088;-71